sensor_id;sensor_type;location;lat;lon;timestamp;P1;durP1;ratioP1;P2;durP2;ratioP2
71174;SDS011;58876;51.994;4.472;2022-08-03T00:02:20;25447.29;;;15136.19;;
71174;SDS011;58876;51.994;4.472;2022-08-03T00:04:46;24886.89;;;14893.26;;
71174;SDS011;58876;51.994;4.472;2022-08-03T00:07:11;24485.89;;;14716.94;;
71174;SDS011;58876;51.994;4.472;2022-08-03T00:09:37;24990.69;;;14926.42;;
71174;SDS011;58876;51.994;4.472;2022-08-03T00:12:03;25661.55;;;15225.51;;
71174;SDS011;58876;51.994;4.472;2022-08-03T00:14:30;25007.73;;;14931.92;;
71174;SDS011;58876;51.994;4.472;2022-08-03T00:16:56;25820.46;;;15280.54;;
71174;SDS011;58876;51.994;4.472;2022-08-03T00:19:22;25909.68;;;15345.63;;
71174;SDS011;58876;51.994;4.472;2022-08-03T00:21:47;26122.40;;;15418.48;;
71174;SDS011;58876;51.994;4.472;2022-08-03T00:24:13;25895.32;;;15293.89;;
71174;SDS011;58876;51.994;4.472;2022-08-03T00:26:38;26281.21;;;15478.82;;
71174;SDS011;58876;51.994;4.472;2022-08-03T00:29:04;26857.37;;;15703.04;;
71174;SDS011;58876;51.994;4.472;2022-08-03T00:31:29;26673.84;;;15658.35;;
71174;SDS011;58876;51.994;4.472;2022-08-03T00:33:55;26454.80;;;15547.04;;
71174;SDS011;58876;51.994;4.472;2022-08-03T00:36:20;26889.24;;;15698.10;;
71174;SDS011;58876;51.994;4.472;2022-08-03T00:38:46;27395.27;;;15912.91;;
71174;SDS011;58876;51.994;4.472;2022-08-03T00:41:11;26329.50;;;15444.81;;
71174;SDS011;58876;51.994;4.472;2022-08-03T00:43:37;26080.64;;;15359.42;;
71174;SDS011;58876;51.994;4.472;2022-08-03T00:46:02;26355.89;;;15478.16;;
71174;SDS011;58876;51.994;4.472;2022-08-03T00:48:28;26394.12;;;15501.80;;
71174;SDS011;58876;51.994;4.472;2022-08-03T00:50:53;26150.95;;;15392.49;;
71174;SDS011;58876;51.994;4.472;2022-08-03T00:53:19;27137.97;;;15854.66;;
71174;SDS011;58876;51.994;4.472;2022-08-03T00:55:45;26533.49;;;15553.19;;
71174;SDS011;58876;51.994;4.472;2022-08-03T00:58:10;27659.99;;;16068.33;;
71174;SDS011;58876;51.994;4.472;2022-08-03T01:00:36;27445.83;;;15976.02;;
71174;SDS011;58876;51.994;4.472;2022-08-03T01:03:04;27489.99;;;15985.66;;
71174;SDS011;58876;51.994;4.472;2022-08-03T01:05:44;28071.40;;;16243.95;;
71174;SDS011;58876;51.994;4.472;2022-08-03T01:08:19;28421.42;;;16396.25;;
71174;SDS011;58876;51.994;4.472;2022-08-03T01:10:59;28787.81;;;16584.68;;
71174;SDS011;58876;51.994;4.472;2022-08-03T01:16:39;29239.92;;;16786.23;;
71174;SDS011;58876;51.994;4.472;2022-08-03T01:27:08;28046.61;;;16229.43;;
71174;SDS011;58876;51.994;4.472;2022-08-03T01:29:56;28143.22;;;16271.19;;
71174;SDS011;58876;51.994;4.472;2022-08-03T01:34:58;28542.56;;;16473.85;;
71174;SDS011;58876;51.994;4.472;2022-08-03T01:37:37;28844.28;;;16595.71;;
71174;SDS011;58876;51.994;4.472;2022-08-03T01:40:12;29354.02;;;16818.87;;
71174;SDS011;58876;51.994;4.472;2022-08-03T01:42:40;28974.30;;;16581.96;;
71174;SDS011;58876;51.994;4.472;2022-08-03T01:45:09;27999.70;;;16082.52;;
71174;SDS011;58876;51.994;4.472;2022-08-03T01:47:38;28827.94;;;16479.30;;
71174;SDS011;58876;51.994;4.472;2022-08-03T01:50:06;28672.20;;;16402.72;;
71174;SDS011;58876;51.994;4.472;2022-08-03T01:52:34;28528.18;;;16360.54;;
71174;SDS011;58876;51.994;4.472;2022-08-03T01:55:07;28010.99;;;16147.73;;
71174;SDS011;58876;51.994;4.472;2022-08-03T01:57:35;28742.14;;;16457.81;;
71174;SDS011;58876;51.994;4.472;2022-08-03T02:00:03;26990.79;;;15588.40;;
71174;SDS011;58876;51.994;4.472;2022-08-03T02:02:31;27101.88;;;15705.11;;
71174;SDS011;58876;51.994;4.472;2022-08-03T02:05:06;25086.47;;;14780.06;;
71174;SDS011;58876;51.994;4.472;2022-08-03T02:07:34;26533.13;;;15488.57;;
71174;SDS011;58876;51.994;4.472;2022-08-03T02:10:04;24749.20;;;14706.87;;
71174;SDS011;58876;51.994;4.472;2022-08-03T02:12:31;24957.74;;;14760.00;;
71174;SDS011;58876;51.994;4.472;2022-08-03T02:15:15;24662.50;;;14595.67;;
71174;SDS011;58876;51.994;4.472;2022-08-03T02:17:43;24509.92;;;14570.81;;
71174;SDS011;58876;51.994;4.472;2022-08-03T02:20:11;24315.83;;;14444.33;;
71174;SDS011;58876;51.994;4.472;2022-08-03T02:22:38;24070.86;;;14290.27;;
71174;SDS011;58876;51.994;4.472;2022-08-03T02:31:14;23974.18;;;14250.93;;
71174;SDS011;58876;51.994;4.472;2022-08-03T02:33:52;24532.79;;;14521.25;;
71174;SDS011;58876;51.994;4.472;2022-08-03T02:36:28;24869.12;;;14698.97;;
71174;SDS011;58876;51.994;4.472;2022-08-03T02:38:58;24899.72;;;14710.99;;
71174;SDS011;58876;51.994;4.472;2022-08-03T02:41:28;24415.91;;;14542.02;;
71174;SDS011;58876;51.994;4.472;2022-08-03T02:47:14;24611.04;;;14576.10;;
71174;SDS011;58876;51.994;4.472;2022-08-03T02:49:46;25972.27;;;15190.12;;
71174;SDS011;58876;51.994;4.472;2022-08-03T02:52:15;26829.00;;;15585.17;;
71174;SDS011;58876;51.994;4.472;2022-08-03T02:57:38;25812.74;;;15096.44;;
71174;SDS011;58876;51.994;4.472;2022-08-03T03:00:07;26951.56;;;15616.00;;
71174;SDS011;58876;51.994;4.472;2022-08-03T03:02:33;27355.70;;;15835.80;;
71174;SDS011;58876;51.994;4.472;2022-08-03T03:07:34;26520.14;;;15504.83;;
71174;SDS011;58876;51.994;4.472;2022-08-03T03:10:02;26277.92;;;15417.42;;
71174;SDS011;58876;51.994;4.472;2022-08-03T03:12:29;27135.19;;;15808.00;;
71174;SDS011;58876;51.994;4.472;2022-08-03T03:15:01;26069.14;;;15399.85;;
71174;SDS011;58876;51.994;4.472;2022-08-03T03:17:27;25893.75;;;15261.66;;
71174;SDS011;58876;51.994;4.472;2022-08-03T03:19:55;26511.01;;;15536.37;;
71174;SDS011;58876;51.994;4.472;2022-08-03T03:22:22;27158.86;;;15837.87;;
71174;SDS011;58876;51.994;4.472;2022-08-03T03:25:01;27871.28;;;16159.92;;
71174;SDS011;58876;51.994;4.472;2022-08-03T03:27:27;27739.56;;;16076.34;;
71174;SDS011;58876;51.994;4.472;2022-08-03T03:29:54;27517.81;;;15970.45;;
71174;SDS011;58876;51.994;4.472;2022-08-03T03:32:21;28752.44;;;16567.34;;
71174;SDS011;58876;51.994;4.472;2022-08-03T03:34:56;29713.28;;;17032.38;;
71174;SDS011;58876;51.994;4.472;2022-08-03T03:37:23;29617.65;;;17003.25;;
71174;SDS011;58876;51.994;4.472;2022-08-03T03:39:51;31206.44;;;17724.41;;
71174;SDS011;58876;51.994;4.472;2022-08-03T03:42:17;29189.39;;;16817.84;;
71174;SDS011;58876;51.994;4.472;2022-08-03T03:44:45;29785.29;;;17101.17;;
71174;SDS011;58876;51.994;4.472;2022-08-03T03:47:11;30678.72;;;17481.02;;
71174;SDS011;58876;51.994;4.472;2022-08-03T03:49:37;31086.26;;;17686.73;;
71174;SDS011;58876;51.994;4.472;2022-08-03T03:52:04;30857.86;;;17552.60;;
71174;SDS011;58876;51.994;4.472;2022-08-03T03:54:42;30587.00;;;17409.71;;
71174;SDS011;58876;51.994;4.472;2022-08-03T03:57:09;30998.20;;;17618.03;;
71174;SDS011;58876;51.994;4.472;2022-08-03T03:59:39;31100.77;;;17642.11;;
71174;SDS011;58876;51.994;4.472;2022-08-03T04:02:06;31730.69;;;17925.62;;
71174;SDS011;58876;51.994;4.472;2022-08-03T04:04:33;31816.24;;;18017.86;;
71174;SDS011;58876;51.994;4.472;2022-08-03T04:07:18;31415.69;;;17811.01;;
71174;SDS011;58876;51.994;4.472;2022-08-03T04:10:04;31506.97;;;17828.17;;
71174;SDS011;58876;51.994;4.472;2022-08-03T04:12:55;30963.24;;;17591.23;;
71174;SDS011;58876;51.994;4.472;2022-08-03T04:15:30;31477.35;;;17818.55;;
71174;SDS011;58876;51.994;4.472;2022-08-03T04:17:58;30649.79;;;17429.88;;
71174;SDS011;58876;51.994;4.472;2022-08-03T04:20:27;29724.54;;;17036.32;;
71174;SDS011;58876;51.994;4.472;2022-08-03T04:22:57;28273.64;;;16389.98;;
71174;SDS011;58876;51.994;4.472;2022-08-03T04:25:27;28391.58;;;16458.29;;
71174;SDS011;58876;51.994;4.472;2022-08-03T04:27:56;28560.89;;;16520.29;;
71174;SDS011;58876;51.994;4.472;2022-08-03T04:30:25;28175.09;;;16333.08;;
71174;SDS011;58876;51.994;4.472;2022-08-03T04:32:53;28413.53;;;16499.95;;
71174;SDS011;58876;51.994;4.472;2022-08-03T04:35:22;27426.89;;;16016.67;;
71174;SDS011;58876;51.994;4.472;2022-08-03T04:37:50;27199.07;;;15860.34;;
71174;SDS011;58876;51.994;4.472;2022-08-03T04:40:36;25442.07;;;15027.36;;
71174;SDS011;58876;51.994;4.472;2022-08-03T04:43:06;25223.49;;;14918.42;;
71174;SDS011;58876;51.994;4.472;2022-08-03T04:48:32;26611.09;;;15517.26;;
71174;SDS011;58876;51.994;4.472;2022-08-03T04:51:06;26109.65;;;15345.72;;
71174;SDS011;58876;51.994;4.472;2022-08-03T04:53:31;27052.36;;;15841.24;;
71174;SDS011;58876;51.994;4.472;2022-08-03T04:56:02;27859.12;;;16161.24;;
71174;SDS011;58876;51.994;4.472;2022-08-03T04:58:29;25252.29;;;14952.06;;
71174;SDS011;58876;51.994;4.472;2022-08-03T05:00:55;23268.79;;;13976.65;;
71174;SDS011;58876;51.994;4.472;2022-08-03T05:03:21;23285.21;;;13983.57;;
71174;SDS011;58876;51.994;4.472;2022-08-03T05:05:46;22830.17;;;13787.12;;
71174;SDS011;58876;51.994;4.472;2022-08-03T05:08:12;22750.56;;;13737.97;;
71174;SDS011;58876;51.994;4.472;2022-08-03T05:10:37;22389.26;;;13567.58;;
71174;SDS011;58876;51.994;4.472;2022-08-03T05:13:04;22255.06;;;13496.79;;
71174;SDS011;58876;51.994;4.472;2022-08-03T05:15:31;22324.54;;;13537.42;;
71174;SDS011;58876;51.994;4.472;2022-08-03T05:17:57;22791.57;;;13750.51;;
71174;SDS011;58876;51.994;4.472;2022-08-03T05:20:22;24240.45;;;14422.13;;
71174;SDS011;58876;51.994;4.472;2022-08-03T05:22:48;25768.92;;;15129.73;;
71174;SDS011;58876;51.994;4.472;2022-08-03T05:25:13;26112.48;;;15321.74;;
71174;SDS011;58876;51.994;4.472;2022-08-03T05:27:39;25259.30;;;14895.31;;
71174;SDS011;58876;51.994;4.472;2022-08-03T05:30:04;25048.88;;;14821.93;;
71174;SDS011;58876;51.994;4.472;2022-08-03T05:32:30;25363.23;;;14987.23;;
71174;SDS011;58876;51.994;4.472;2022-08-03T05:35:02;25594.43;;;15057.79;;
71174;SDS011;58876;51.994;4.472;2022-08-03T05:37:27;25696.17;;;15129.43;;
71174;SDS011;58876;51.994;4.472;2022-08-03T05:39:53;24716.72;;;14710.02;;
71174;SDS011;58876;51.994;4.472;2022-08-03T05:42:18;23709.32;;;14204.30;;
71174;SDS011;58876;51.994;4.472;2022-08-03T05:44:49;22651.33;;;13639.44;;
71174;SDS011;58876;51.994;4.472;2022-08-03T05:47:15;18887.02;;;11957.04;;
71174;SDS011;58876;51.994;4.472;2022-08-03T05:49:40;16322.20;;;10552.18;;
71174;SDS011;58876;51.994;4.472;2022-08-03T05:52:06;17833.25;;;11291.72;;
71174;SDS011;58876;51.994;4.472;2022-08-03T05:54:31;18917.62;;;11692.13;;
71174;SDS011;58876;51.994;4.472;2022-08-03T05:56:57;19312.97;;;11933.23;;
71174;SDS011;58876;51.994;4.472;2022-08-03T05:59:23;19693.00;;;12197.23;;
71174;SDS011;58876;51.994;4.472;2022-08-03T06:01:49;20652.89;;;12678.49;;
71174;SDS011;58876;51.994;4.472;2022-08-03T06:04:15;20148.17;;;12459.71;;
71174;SDS011;58876;51.994;4.472;2022-08-03T06:06:40;19313.46;;;12120.16;;
71174;SDS011;58876;51.994;4.472;2022-08-03T06:09:07;19008.93;;;11967.22;;
71174;SDS011;58876;51.994;4.472;2022-08-03T06:11:34;19745.99;;;12379.65;;
71174;SDS011;58876;51.994;4.472;2022-08-03T06:14:01;19275.65;;;12074.51;;
71174;SDS011;58876;51.994;4.472;2022-08-03T06:16:26;18183.70;;;11581.77;;
71174;SDS011;58876;51.994;4.472;2022-08-03T06:18:52;17410.22;;;11191.05;;
71174;SDS011;58876;51.994;4.472;2022-08-03T06:21:17;15616.95;;;10321.80;;
71174;SDS011;58876;51.994;4.472;2022-08-03T06:23:44;14766.78;;;9948.02;;
71174;SDS011;58876;51.994;4.472;2022-08-03T06:26:12;15673.98;;;10386.80;;
71174;SDS011;58876;51.994;4.472;2022-08-03T06:28:38;17195.36;;;11091.53;;
71174;SDS011;58876;51.994;4.472;2022-08-03T06:31:03;19865.82;;;12306.76;;
71174;SDS011;58876;51.994;4.472;2022-08-03T06:33:29;21202.16;;;12966.51;;
71174;SDS011;58876;51.994;4.472;2022-08-03T06:35:55;22656.32;;;13661.26;;
71174;SDS011;58876;51.994;4.472;2022-08-03T06:38:20;21517.35;;;13112.81;;
71174;SDS011;58876;51.994;4.472;2022-08-03T06:40:46;21602.53;;;13139.56;;
71174;SDS011;58876;51.994;4.472;2022-08-03T06:43:11;21376.29;;;13023.72;;
71174;SDS011;58876;51.994;4.472;2022-08-03T06:45:39;21661.86;;;13175.28;;
71174;SDS011;58876;51.994;4.472;2022-08-03T06:48:07;20876.21;;;12879.66;;
71174;SDS011;58876;51.994;4.472;2022-08-03T06:50:35;20537.72;;;12722.94;;
71174;SDS011;58876;51.994;4.472;2022-08-03T06:53:03;20823.18;;;12863.64;;
71174;SDS011;58876;51.994;4.472;2022-08-03T06:55:29;21074.84;;;12943.40;;
71174;SDS011;58876;51.994;4.472;2022-08-03T06:57:56;20609.79;;;12705.20;;
71174;SDS011;58876;51.994;4.472;2022-08-03T07:00:22;19783.73;;;12368.13;;
71174;SDS011;58876;51.994;4.472;2022-08-03T07:02:48;22370.27;;;13615.68;;
71174;SDS011;58876;51.994;4.472;2022-08-03T07:05:15;21539.20;;;13155.97;;
71174;SDS011;58876;51.994;4.472;2022-08-03T07:07:40;21969.69;;;13387.66;;
71174;SDS011;58876;51.994;4.472;2022-08-03T07:10:07;21352.25;;;13092.52;;
71174;SDS011;58876;51.994;4.472;2022-08-03T07:12:39;21541.92;;;13136.54;;
71174;SDS011;58876;51.994;4.472;2022-08-03T07:15:06;21194.87;;;12930.46;;
71174;SDS011;58876;51.994;4.472;2022-08-03T07:17:33;20205.03;;;12483.85;;
71174;SDS011;58876;51.994;4.472;2022-08-03T07:19:59;20159.48;;;12446.32;;
71174;SDS011;58876;51.994;4.472;2022-08-03T07:22:28;19947.14;;;12388.07;;
71174;SDS011;58876;51.994;4.472;2022-08-03T07:24:57;21119.70;;;12965.88;;
71174;SDS011;58876;51.994;4.472;2022-08-03T07:27:23;19951.52;;;12372.81;;
71174;SDS011;58876;51.994;4.472;2022-08-03T07:29:50;21274.59;;;12978.30;;
71174;SDS011;58876;51.994;4.472;2022-08-03T07:32:16;20641.41;;;12735.08;;
71174;SDS011;58876;51.994;4.472;2022-08-03T07:34:51;20274.48;;;12586.63;;
71174;SDS011;58876;51.994;4.472;2022-08-03T07:37:16;20061.51;;;12462.74;;
71174;SDS011;58876;51.994;4.472;2022-08-03T07:39:42;20838.49;;;12834.65;;
71174;SDS011;58876;51.994;4.472;2022-08-03T07:42:07;22469.78;;;13560.93;;
71174;SDS011;58876;51.994;4.472;2022-08-03T07:48:06;22969.28;;;13671.88;;
71174;SDS011;58876;51.994;4.472;2022-08-03T07:50:32;22874.29;;;13658.80;;
71174;SDS011;58876;51.994;4.472;2022-08-03T07:52:57;23074.36;;;13735.38;;
71174;SDS011;58876;51.994;4.472;2022-08-03T07:55:26;22707.48;;;13634.95;;
71174;SDS011;58876;51.994;4.472;2022-08-03T07:57:59;22443.80;;;13347.19;;
71174;SDS011;58876;51.994;4.472;2022-08-03T08:00:26;22422.82;;;13343.79;;
71174;SDS011;58876;51.994;4.472;2022-08-03T08:02:52;22239.99;;;13208.03;;
71174;SDS011;58876;51.994;4.472;2022-08-03T08:05:23;22310.72;;;13253.63;;
71174;SDS011;58876;51.994;4.472;2022-08-03T08:07:48;22047.10;;;13175.02;;
71174;SDS011;58876;51.994;4.472;2022-08-03T08:10:14;21998.97;;;13118.58;;
71174;SDS011;58876;51.994;4.472;2022-08-03T08:12:39;22409.53;;;13363.30;;
71174;SDS011;58876;51.994;4.472;2022-08-03T08:15:14;22554.68;;;13367.13;;
71174;SDS011;58876;51.994;4.472;2022-08-03T08:17:41;22954.25;;;13588.28;;
71174;SDS011;58876;51.994;4.472;2022-08-03T08:20:14;23217.10;;;13713.77;;
71174;SDS011;58876;51.994;4.472;2022-08-03T08:22:43;23068.96;;;13689.86;;
71174;SDS011;58876;51.994;4.472;2022-08-03T08:25:08;23456.33;;;13853.97;;
71174;SDS011;58876;51.994;4.472;2022-08-03T08:27:39;21729.00;;;12998.30;;
71174;SDS011;58876;51.994;4.472;2022-08-03T08:30:06;22379.86;;;13371.84;;
71174;SDS011;58876;51.994;4.472;2022-08-03T08:32:33;20579.43;;;12652.70;;
71174;SDS011;58876;51.994;4.472;2022-08-03T08:35:00;18824.58;;;11677.83;;
71174;SDS011;58876;51.994;4.472;2022-08-03T08:37:25;19457.60;;;11929.16;;
71174;SDS011;58876;51.994;4.472;2022-08-03T08:39:50;18811.18;;;11685.86;;
71174;SDS011;58876;51.994;4.472;2022-08-03T08:42:16;18753.97;;;11683.61;;
71174;SDS011;58876;51.994;4.472;2022-08-03T08:44:42;18582.49;;;11571.63;;
71174;SDS011;58876;51.994;4.472;2022-08-03T08:47:08;18128.41;;;11324.42;;
71174;SDS011;58876;51.994;4.472;2022-08-03T08:49:34;17782.08;;;11255.60;;
71174;SDS011;58876;51.994;4.472;2022-08-03T08:52:02;17928.47;;;11317.59;;
71174;SDS011;58876;51.994;4.472;2022-08-03T08:54:29;17043.67;;;10911.03;;
71174;SDS011;58876;51.994;4.472;2022-08-03T08:56:57;17424.26;;;11038.69;;
71174;SDS011;58876;51.994;4.472;2022-08-03T08:59:27;16957.95;;;10808.47;;
71174;SDS011;58876;51.994;4.472;2022-08-03T09:01:56;17020.97;;;10882.80;;
71174;SDS011;58876;51.994;4.472;2022-08-03T09:04:23;17440.26;;;11075.98;;
71174;SDS011;58876;51.994;4.472;2022-08-03T09:06:49;17044.81;;;10831.06;;
71174;SDS011;58876;51.994;4.472;2022-08-03T09:09:15;16764.46;;;10725.72;;
71174;SDS011;58876;51.994;4.472;2022-08-03T09:11:44;15939.21;;;10353.75;;
71174;SDS011;58876;51.994;4.472;2022-08-03T09:14:10;16444.46;;;10589.24;;
71174;SDS011;58876;51.994;4.472;2022-08-03T09:16:35;16132.23;;;10504.19;;
71174;SDS011;58876;51.994;4.472;2022-08-03T09:19:11;16251.63;;;10559.40;;
71174;SDS011;58876;51.994;4.472;2022-08-03T09:21:38;16488.59;;;10655.78;;
71174;SDS011;58876;51.994;4.472;2022-08-03T09:24:04;16336.52;;;10564.68;;
71174;SDS011;58876;51.994;4.472;2022-08-03T09:26:32;16452.17;;;10594.25;;
71174;SDS011;58876;51.994;4.472;2022-08-03T09:33:56;16385.70;;;10609.52;;
71174;SDS011;58876;51.994;4.472;2022-08-03T09:36:35;16297.95;;;10551.89;;
71174;SDS011;58876;51.994;4.472;2022-08-03T09:39:12;16194.45;;;10623.56;;
71174;SDS011;58876;51.994;4.472;2022-08-03T09:41:41;16551.42;;;10749.13;;
71174;SDS011;58876;51.994;4.472;2022-08-03T09:44:08;17416.51;;;11146.93;;
71174;SDS011;58876;51.994;4.472;2022-08-03T09:46:55;16625.37;;;10728.31;;
71174;SDS011;58876;51.994;4.472;2022-08-03T09:49:20;17860.59;;;11246.85;;
71174;SDS011;58876;51.994;4.472;2022-08-03T09:51:46;17045.71;;;10939.63;;
71174;SDS011;58876;51.994;4.472;2022-08-03T09:54:24;17001.13;;;11041.03;;
71174;SDS011;58876;51.994;4.472;2022-08-03T09:56:54;17064.32;;;10929.98;;
71174;SDS011;58876;51.994;4.472;2022-08-03T10:01:53;17200.26;;;10989.15;;
71174;SDS011;58876;51.994;4.472;2022-08-03T10:04:20;17054.24;;;10947.02;;
71174;SDS011;58876;51.994;4.472;2022-08-03T10:07:05;16064.01;;;10489.66;;
71174;SDS011;58876;51.994;4.472;2022-08-03T10:09:33;16625.68;;;10778.31;;
71174;SDS011;58876;51.994;4.472;2022-08-03T10:12:06;16653.55;;;10845.49;;
71174;SDS011;58876;51.994;4.472;2022-08-03T10:14:33;16836.87;;;10898.77;;
71174;SDS011;58876;51.994;4.472;2022-08-03T10:17:02;16444.30;;;10694.27;;
71174;SDS011;58876;51.994;4.472;2022-08-03T10:19:27;16712.42;;;10865.79;;
71174;SDS011;58876;51.994;4.472;2022-08-03T10:21:54;15573.18;;;10371.25;;
71174;SDS011;58876;51.994;4.472;2022-08-03T10:24:25;16689.24;;;10882.39;;
71174;SDS011;58876;51.994;4.472;2022-08-03T10:27:01;16805.91;;;10990.82;;
71174;SDS011;58876;51.994;4.472;2022-08-03T10:29:28;16912.51;;;11009.23;;
71174;SDS011;58876;51.994;4.472;2022-08-03T10:32:02;16852.80;;;10918.41;;
71174;SDS011;58876;51.994;4.472;2022-08-03T10:34:34;16864.67;;;10927.05;;
71174;SDS011;58876;51.994;4.472;2022-08-03T10:37:06;16512.03;;;10824.65;;
71174;SDS011;58876;51.994;4.472;2022-08-03T10:39:35;17351.88;;;11201.12;;
71174;SDS011;58876;51.994;4.472;2022-08-03T10:42:01;17765.95;;;11432.49;;
71174;SDS011;58876;51.994;4.472;2022-08-03T10:44:36;17075.59;;;11064.87;;
71174;SDS011;58876;51.994;4.472;2022-08-03T10:47:05;17508.39;;;11264.99;;
71174;SDS011;58876;51.994;4.472;2022-08-03T10:49:31;17214.16;;;11172.75;;
71174;SDS011;58876;51.994;4.472;2022-08-03T10:51:57;17470.85;;;11155.19;;
71174;SDS011;58876;51.994;4.472;2022-08-03T10:54:36;17257.02;;;11025.37;;
71174;SDS011;58876;51.994;4.472;2022-08-03T10:57:45;16080.74;;;10626.37;;
71174;SDS011;58876;51.994;4.472;2022-08-03T11:00:14;16777.50;;;10941.87;;
71174;SDS011;58876;51.994;4.472;2022-08-03T11:05:41;17578.84;;;11294.17;;
71174;SDS011;58876;51.994;4.472;2022-08-03T11:08:28;16944.80;;;11016.06;;
71174;SDS011;58876;51.994;4.472;2022-08-03T11:10:57;17084.10;;;10962.94;;
71174;SDS011;58876;51.994;4.472;2022-08-03T11:13:27;16669.85;;;10728.98;;
71174;SDS011;58876;51.994;4.472;2022-08-03T11:15:56;16529.52;;;10594.59;;
71174;SDS011;58876;51.994;4.472;2022-08-03T11:18:24;15615.15;;;10139.70;;
71174;SDS011;58876;51.994;4.472;2022-08-03T11:20:52;15449.81;;;10015.02;;
71174;SDS011;58876;51.994;4.472;2022-08-03T11:23:20;15799.55;;;10257.01;;
71174;SDS011;58876;51.994;4.472;2022-08-03T11:26:12;15799.58;;;10272.37;;
71174;SDS011;58876;51.994;4.472;2022-08-03T11:28:40;15867.13;;;10286.40;;
71174;SDS011;58876;51.994;4.472;2022-08-03T11:34:08;16960.19;;;11346.39;;
71174;SDS011;58876;51.994;4.472;2022-08-03T11:42:37;16832.40;;;10848.16;;
71174;SDS011;58876;51.994;4.472;2022-08-03T11:44:58;16961.85;;;10961.51;;
71174;SDS011;58876;51.994;4.472;2022-08-03T11:47:28;16094.87;;;10434.20;;
71174;SDS011;58876;51.994;4.472;2022-08-03T11:49:57;16250.80;;;10520.09;;
71174;SDS011;58876;51.994;4.472;2022-08-03T11:52:26;16286.53;;;10460.22;;
71174;SDS011;58876;51.994;4.472;2022-08-03T11:54:57;15550.62;;;10168.67;;
71174;SDS011;58876;51.994;4.472;2022-08-03T11:57:33;15081.65;;;9890.34;;
71174;SDS011;58876;51.994;4.472;2022-08-03T11:59:59;15280.46;;;9982.32;;
71174;SDS011;58876;51.994;4.472;2022-08-03T12:02:25;15119.82;;;9834.20;;
71174;SDS011;58876;51.994;4.472;2022-08-03T12:04:54;15283.08;;;9943.22;;
71174;SDS011;58876;51.994;4.472;2022-08-03T12:07:26;15949.40;;;10219.63;;
71174;SDS011;58876;51.994;4.472;2022-08-03T12:10:10;15381.18;;;9897.10;;
71174;SDS011;58876;51.994;4.472;2022-08-03T12:12:38;16136.98;;;10230.40;;
71174;SDS011;58876;51.994;4.472;2022-08-03T12:15:07;15434.44;;;9859.71;;
71174;SDS011;58876;51.994;4.472;2022-08-03T12:17:37;15262.03;;;9833.99;;
71174;SDS011;58876;51.994;4.472;2022-08-03T12:20:05;16170.99;;;10269.64;;
71174;SDS011;58876;51.994;4.472;2022-08-03T12:22:33;16498.73;;;10342.35;;
71174;SDS011;58876;51.994;4.472;2022-08-03T12:25:05;15464.64;;;9975.81;;
71174;SDS011;58876;51.994;4.472;2022-08-03T12:27:32;15579.37;;;10032.81;;
71174;SDS011;58876;51.994;4.472;2022-08-03T12:29:59;16435.60;;;10460.95;;
71174;SDS011;58876;51.994;4.472;2022-08-03T12:32:26;15843.90;;;10156.93;;
71174;SDS011;58876;51.994;4.472;2022-08-03T12:34:53;15572.80;;;10038.78;;
71174;SDS011;58876;51.994;4.472;2022-08-03T12:37:24;16110.58;;;10257.02;;
71174;SDS011;58876;51.994;4.472;2022-08-03T12:39:51;15813.74;;;10191.75;;
71174;SDS011;58876;51.994;4.472;2022-08-03T12:42:18;15535.34;;;10101.55;;
71174;SDS011;58876;51.994;4.472;2022-08-03T12:44:43;16327.88;;;10439.58;;
71174;SDS011;58876;51.994;4.472;2022-08-03T12:47:10;16666.65;;;10585.96;;
71174;SDS011;58876;51.994;4.472;2022-08-03T12:49:53;16457.16;;;10466.46;;
71174;SDS011;58876;51.994;4.472;2022-08-03T12:52:19;15410.25;;;9948.86;;
71174;SDS011;58876;51.994;4.472;2022-08-03T12:54:56;15831.17;;;10150.96;;
71174;SDS011;58876;51.994;4.472;2022-08-03T12:57:25;16140.04;;;10270.41;;
71174;SDS011;58876;51.994;4.472;2022-08-03T13:00:11;15839.25;;;10118.87;;
71174;SDS011;58876;51.994;4.472;2022-08-03T13:02:38;15697.17;;;10079.70;;
71174;SDS011;58876;51.994;4.472;2022-08-03T13:05:16;15354.62;;;9948.42;;
71174;SDS011;58876;51.994;4.472;2022-08-03T13:07:45;16438.94;;;10443.99;;
71174;SDS011;58876;51.994;4.472;2022-08-03T13:10:11;16118.52;;;10270.56;;
71174;SDS011;58876;51.994;4.472;2022-08-03T13:12:51;16173.08;;;10188.39;;
71174;SDS011;58876;51.994;4.472;2022-08-03T13:15:18;16753.60;;;10528.93;;
71174;SDS011;58876;51.994;4.472;2022-08-03T13:17:46;15544.57;;;9991.60;;
71174;SDS011;58876;51.994;4.472;2022-08-03T13:20:11;16219.13;;;10337.04;;
71174;SDS011;58876;51.994;4.472;2022-08-03T13:22:36;16211.04;;;10264.51;;
71174;SDS011;58876;51.994;4.472;2022-08-03T13:25:03;15612.67;;;10048.80;;
71174;SDS011;58876;51.994;4.472;2022-08-03T13:27:29;15583.85;;;10052.17;;
71174;SDS011;58876;51.994;4.472;2022-08-03T13:29:56;16219.90;;;10376.51;;
71174;SDS011;58876;51.994;4.472;2022-08-03T13:32:22;15989.63;;;10265.15;;
71174;SDS011;58876;51.994;4.472;2022-08-03T13:34:49;16400.80;;;10371.10;;
71174;SDS011;58876;51.994;4.472;2022-08-03T13:37:15;15953.64;;;10176.94;;
71174;SDS011;58876;51.994;4.472;2022-08-03T13:39:40;15906.30;;;10174.00;;
71174;SDS011;58876;51.994;4.472;2022-08-03T13:42:07;16445.94;;;10390.70;;
71174;SDS011;58876;51.994;4.472;2022-08-03T13:44:33;16189.61;;;10292.06;;
71174;SDS011;58876;51.994;4.472;2022-08-03T13:47:01;16346.46;;;10374.20;;
71174;SDS011;58876;51.994;4.472;2022-08-03T13:49:27;16623.17;;;10459.43;;
71174;SDS011;58876;51.994;4.472;2022-08-03T13:51:54;16154.41;;;10295.37;;
71174;SDS011;58876;51.994;4.472;2022-08-03T13:54:19;15474.33;;;9984.18;;
71174;SDS011;58876;51.994;4.472;2022-08-03T13:56:45;15920.04;;;10222.96;;
71174;SDS011;58876;51.994;4.472;2022-08-03T13:59:17;15754.08;;;10124.39;;
71174;SDS011;58876;51.994;4.472;2022-08-03T14:01:44;16213.12;;;10425.09;;
71174;SDS011;58876;51.994;4.472;2022-08-03T14:04:10;16087.78;;;10349.01;;
71174;SDS011;58876;51.994;4.472;2022-08-03T14:06:35;16937.38;;;10746.44;;
71174;SDS011;58876;51.994;4.472;2022-08-03T14:09:01;16564.26;;;10476.55;;
71174;SDS011;58876;51.994;4.472;2022-08-03T14:11:26;16364.27;;;10454.44;;
71174;SDS011;58876;51.994;4.472;2022-08-03T14:13:59;15492.24;;;10020.81;;
71174;SDS011;58876;51.994;4.472;2022-08-03T14:16:24;15994.53;;;10293.97;;